Time;durP1;ratioP1;P1;durP2;ratioP2;P2;SDS_P1;SDS_P2;PMS_P1;PMS_P2;Temp;Humidity;BMP_temperature;BMP_pressure;BME280_temperature;BME280_humidity;BME280_pressure;Samples;Min_cycle;Max_cycle;Signal;HPM_P1;HPM_P2
2021/03/13 00:01:17;;;;;;;15.03;9.70;;;;;;;2.33;84.68;97517.99;1659875;86;21664;-64
2021/03/13 00:03:46;;;;;;;18.07;11.08;;;;;;;2.41;84.09;97516.69;1666384;84;21641;-64
2021/03/13 00:06:14;;;;;;;23.60;11.20;;;;;;;2.45;83.39;97515.56;1660132;83;21182;-64
2021/03/13 00:08:43;;;;;;;19.35;11.08;;;;;;;2.47;83.42;97514.52;1683821;83;21654;-64
2021/03/13 00:11:11;;;;;;;19.27;12.03;;;;;;;2.46;83.53;97513.33;1679641;84;21266;-64
2021/03/13 00:13:40;;;;;;;20.27;10.82;;;;;;;2.48;83.32;97510.22;1675712;84;21161;-64
2021/03/13 00:16:08;;;;;;;21.05;11.22;;;;;;;2.51;83.19;97501.03;1674787;84;21258;-64
2021/03/13 00:18:37;;;;;;;18.73;9.93;;;;;;;2.59;82.44;97497.03;1667035;84;21187;-64
2021/03/13 00:21:06;;;;;;;20.70;10.05;;;;;;;2.68;81.85;97499.44;1657854;86;21160;-64
2021/03/13 00:23:34;;;;;;;26.25;12.65;;;;;;;2.72;81.30;97495.73;1676404;84;21590;-64
2021/03/13 00:26:02;;;;;;;19.50;10.75;;;;;;;2.79;80.96;97494.38;1660188;84;21211;-64
2021/03/13 00:28:31;;;;;;;13.72;9.65;;;;;;;2.82;80.66;97492.42;1673207;83;21561;-64
2021/03/13 00:30:59;;;;;;;18.27;10.28;;;;;;;2.85;80.36;97484.52;1662323;83;21163;-65
2021/03/13 00:33:30;;;;;;;19.80;10.40;;;;;;;2.88;80.19;97478.34;1671441;83;21192;-65
2021/03/13 00:35:58;;;;;;;19.77;10.85;;;;;;;2.90;79.91;97475.67;1666021;83;21191;-64
2021/03/13 00:38:26;;;;;;;15.63;9.60;;;;;;;2.92;79.75;97475.91;1673091;83;21198;-62
2021/03/13 00:40:54;;;;;;;17.05;9.45;;;;;;;2.94;79.54;97474.08;1665713;84;21222;-65
2021/03/13 00:43:22;;;;;;;27.22;11.80;;;;;;;2.94;79.63;97475.36;1680721;84;21156;-65
2021/03/13 00:45:50;;;;;;;20.70;10.20;;;;;;;2.96;79.46;97487.60;1670848;83;21201;-68
2021/03/13 00:48:18;;;;;;;18.40;10.78;;;;;;;2.98;79.35;97483.66;1670414;84;21207;-62
2021/03/13 00:50:46;;;;;;;19.45;10.72;;;;;;;2.99;79.23;97479.72;1663011;85;21234;-65
2021/03/13 00:53:15;;;;;;;19.37;11.10;;;;;;;3.01;79.10;97481.70;1628117;86;21665;-63
2021/03/13 00:55:45;;;;;;;18.42;11.25;;;;;;;3.03;79.12;97477.75;1685181;83;21163;-63
2021/03/13 00:58:15;;;;;;;21.65;12.00;;;;;;;3.03;78.79;97484.98;1660972;83;21156;-62
2021/03/13 01:00:48;;;;;;;20.12;10.05;;;;;;;3.03;78.75;97482.42;1662670;85;21658;-63
2021/03/13 01:03:18;;;;;;;22.37;12.05;;;;;;;3.03;78.98;97486.73;1670986;83;21148;-63
2021/03/13 01:05:46;;;;;;;22.22;12.23;;;;;;;3.03;79.08;97479.03;1679120;84;21169;-62
2021/03/13 01:08:15;;;;;;;17.02;11.20;;;;;;;2.99;79.56;97470.73;1661117;85;21672;-62
2021/03/13 01:10:47;;;;;;;17.02;11.10;;;;;;;2.91;80.45;97475.59;1615933;86;21178;-65
2021/03/13 01:13:18;;;;;;;24.18;13.18;;;;;;;2.90;79.97;97471.37;1672094;84;21806;-63
2021/03/13 01:15:46;;;;;;;18.85;11.22;;;;;;;2.67;82.14;97467.84;1673005;84;21164;-62
2021/03/13 01:18:18;;;;;;;24.37;12.75;;;;;;;2.62;82.23;97471.64;1662174;83;21186;-62
2021/03/13 01:20:49;;;;;;;15.13;10.45;;;;;;;2.49;83.00;97474.70;1674439;84;21156;-62
2021/03/13 01:23:19;;;;;;;19.17;12.18;;;;;;;2.54;82.81;97477.75;1670199;83;21191;-65
2021/03/13 01:25:47;;;;;;;19.50;11.12;;;;;;;2.52;83.01;97470.64;1668029;84;21158;-63
2021/03/13 01:28:17;;;;;;;19.60;10.63;;;;;;;2.61;82.17;97483.63;1668112;83;21160;-65
2021/03/13 01:30:47;;;;;;;14.47;9.15;;;;;;;2.72;81.47;97486.77;1684344;83;21171;-63
2021/03/13 01:33:15;;;;;;;17.10;10.72;;;;;;;2.81;81.39;97492.52;1668906;85;21203;-63
2021/03/13 01:35:43;;;;;;;29.50;11.45;;;;;;;2.78;81.62;97487.15;1680766;84;21152;-63
2021/03/13 01:38:11;;;;;;;16.27;8.88;;;;;;;2.71;82.33;97485.94;1672940;84;21238;-63
2021/03/13 01:40:39;;;;;;;19.27;11.70;;;;;;;2.72;82.13;97491.89;1679573;84;21237;-63
2021/03/13 01:43:10;;;;;;;20.20;10.60;;;;;;;2.81;81.74;97489.95;1689411;83;21168;-63
2021/03/13 01:45:38;;;;;;;14.68;11.88;;;;;;;2.85;81.60;97491.38;1682453;83;21220;-63
2021/03/13 01:48:08;;;;;;;17.25;10.78;;;;;;;2.88;81.39;97486.85;1674759;84;21153;-63
2021/03/13 01:50:37;;;;;;;16.10;9.68;;;;;;;2.82;81.87;97489.86;1674410;83;21203;-64
2021/03/13 01:53:06;;;;;;;14.53;10.48;;;;;;;2.88;81.57;97491.16;1676902;83;21205;-63
2021/03/13 01:55:35;;;;;;;16.52;10.13;;;;;;;2.91;81.53;97480.72;1678927;84;21156;-63
2021/03/13 01:58:04;;;;;;;16.85;10.30;;;;;;;2.92;81.52;97480.25;1678446;84;21231;-63
2021/03/13 02:00:34;;;;;;;17.70;9.98;;;;;;;3.02;81.09;97487.65;1681929;83;21179;-63
2021/03/13 02:03:03;;;;;;;17.37;10.80;;;;;;;3.11;80.77;97496.78;1680573;84;21227;-63
2021/03/13 02:05:43;;;;;;;7.72;6.95;;;;;;;2.96;81.76;97481.68;1684074;84;21196;-65
2021/03/13 02:08:51;;;;;;;14.70;8.93;;;;;;;2.97;81.18;97472.58;1679470;83;21185;-63
2021/03/13 02:11:43;;;;;;;16.93;10.13;;;;;;;2.91;81.68;97479.43;1654303;85;21597;-62
2021/03/13 02:14:33;;;;;;;13.00;9.13;;;;;;;2.76;82.62;97476.66;1673821;84;21214;-63
2021/03/13 02:17:23;;;;;;;14.43;8.98;;;;;;;2.72;82.70;97486.27;1674552;83;21168;-64
2021/03/13 02:20:18;;;;;;;10.95;7.65;;;;;;;2.53;83.31;97489.74;1661847;86;21200;-62
2021/03/13 02:22:50;;;;;;;13.10;7.40;;;;;;;2.52;83.36;97491.97;1659869;85;21164;-62
2021/03/13 02:26:31;;;;;;;15.43;8.20;;;;;;;2.60;82.65;97494.01;1681944;83;21545;-62
2021/03/13 02:33:31;;;;;;;11.35;7.42;;;;;;;2.42;83.94;97487.55;1665991;84;21139;-62
2021/03/13 02:36:17;;;;;;;13.72;7.35;;;;;;;2.21;85.02;97482.98;1629292;87;21179;-62
2021/03/13 02:38:53;;;;;;;17.07;8.83;;;;;;;2.27;84.73;97478.70;1634880;87;21227;-62
2021/03/13 02:41:27;;;;;;;13.20;7.03;;;;;;;2.32;84.40;97472.00;1635043;87;21176;-63
2021/03/13 02:44:00;;;;;;;13.32;7.60;;;;;;;2.37;84.44;97471.23;1634138;87;21273;-64
2021/03/13 02:46:33;;;;;;;15.25;8.78;;;;;;;2.44;83.66;97469.89;1631989;86;21615;-63
2021/03/13 02:49:03;;;;;;;16.27;9.40;;;;;;;2.45;83.27;97469.43;1628888;86;21211;-63
2021/03/13 02:51:33;;;;;;;15.80;9.68;;;;;;;2.43;82.93;97469.98;1635378;87;21187;-63
2021/03/13 02:54:02;;;;;;;15.15;7.80;;;;;;;2.37;82.77;97467.39;1634513;87;21155;-63
2021/03/13 02:56:34;;;;;;;14.87;7.22;;;;;;;2.27;82.84;97463.34;1632045;86;21190;-63
2021/03/13 02:59:05;;;;;;;12.18;7.58;;;;;;;2.24;82.46;97468.67;1636505;87;21667;-63
2021/03/13 03:01:35;;;;;;;13.30;7.92;;;;;;;2.17;82.61;97462.33;1661986;84;21606;-63
2021/03/13 03:04:06;;;;;;;13.98;7.35;;;;;;;2.17;82.81;97463.61;1631921;87;21266;-62
2021/03/13 03:06:41;;;;;;;14.10;7.60;;;;;;;2.12;83.36;97466.93;1631788;87;21245;-63
2021/03/13 03:09:11;;;;;;;9.88;5.62;;;;;;;2.12;83.02;97469.49;1656231;84;21170;-65
2021/03/13 03:11:42;;;;;;;10.80;6.12;;;;;;;2.06;83.71;97471.66;1633639;87;21637;-62
2021/03/13 03:14:14;;;;;;;11.53;7.30;;;;;;;2.01;84.61;97458.33;1634640;87;21278;-63
2021/03/13 03:16:46;;;;;;;13.00;7.83;;;;;;;1.78;86.44;97459.39;1630991;87;21195;-63
2021/03/13 03:19:17;;;;;;;9.53;7.37;;;;;;;1.83;86.66;97466.29;1664980;85;21221;-65
2021/03/13 03:21:47;;;;;;;12.50;6.75;;;;;;;1.93;85.37;97463.13;1633587;87;21188;-63
2021/03/13 03:24:15;;;;;;;12.65;6.75;;;;;;;1.78;86.86;97459.39;1633820;87;21684;-63
2021/03/13 03:26:44;;;;;;;14.98;7.92;;;;;;;1.76;87.60;97452.26;1661417;84;21202;-63
2021/03/13 03:29:12;;;;;;;7.22;5.67;;;;;;;1.75;87.68;97449.33;1633858;87;21213;-63
2021/03/13 03:31:42;;;;;;;9.90;5.37;;;;;;;1.83;87.09;97450.11;1632941;87;21261;-63
2021/03/13 03:34:10;;;;;;;7.10;5.83;;;;;;;1.81;87.52;97450.23;1633130;87;21278;-62
2021/03/13 03:36:42;;;;;;;9.25;6.17;;;;;;;1.89;87.29;97458.22;1631313;87;21159;-63
2021/03/13 03:39:11;;;;;;;12.18;8.00;;;;;;;1.97;86.54;97467.12;1666658;84;21248;-65
2021/03/13 03:41:43;;;;;;;10.80;6.53;;;;;;;2.08;86.20;97477.48;1664773;84;21606;-63
2021/03/13 03:44:43;;;;;;;11.05;6.45;;;;;;;2.18;85.40;97472.12;1631408;87;21227;-65
2021/03/13 03:47:16;;;;;;;12.23;7.55;;;;;;;2.27;84.83;97477.88;1703439;83;21174;-64
2021/03/13 03:49:47;;;;;;;11.65;7.03;;;;;;;2.23;85.84;97479.84;1702999;82;21219;-64
2021/03/13 03:52:17;;;;;;;12.73;7.10;;;;;;;2.17;86.36;97484.56;1701001;83;21154;-64
2021/03/13 03:54:47;;;;;;;10.72;7.62;;;;;;;2.27;85.58;97485.56;1703106;82;21223;-64
2021/03/13 03:57:16;;;;;;;11.05;7.17;;;;;;;2.32;85.36;97484.34;1710492;83;21167;-64
2021/03/13 03:59:46;;;;;;;9.80;6.33;;;;;;;2.33;85.71;97488.53;1708122;83;21190;-64
2021/03/13 04:02:16;;;;;;;8.70;6.87;;;;;;;2.22;86.41;97477.36;1672237;85;21632;-63
2021/03/13 04:04:45;;;;;;;12.95;7.62;;;;;;;2.28;86.31;97475.69;1659281;85;21178;-64
2021/03/13 04:07:13;;;;;;;8.70;5.67;;;;;;;2.27;86.29;97482.55;1667489;86;21224;-64
2021/03/13 04:09:43;;;;;;;7.78;5.45;;;;;;;2.39;85.83;97491.16;1642445;85;21201;-64
2021/03/13 04:12:12;;;;;;;12.10;7.65;;;;;;;2.47;85.40;97496.58;1628113;86;21191;-64
2021/03/13 04:14:41;;;;;;;12.78;7.92;;;;;;;2.42;85.94;97498.63;1646628;85;21215;-64
2021/03/13 04:17:09;;;;;;;11.88;8.60;;;;;;;2.47;85.60;97500.88;1643401;85;21229;-64
2021/03/13 04:19:38;;;;;;;13.72;8.08;;;;;;;2.32;86.64;97504.84;1645752;85;21199;-64
2021/03/13 04:22:06;;;;;;;12.20;8.28;;;;;;;2.33;86.93;97509.52;1643432;85;21265;-65
2021/03/13 04:24:37;;;;;;;17.90;7.95;;;;;;;2.39;86.35;97503.51;1647437;85;21155;-68
2021/03/13 04:27:06;;;;;;;11.83;6.45;;;;;;;2.43;86.35;97495.61;1647947;85;21200;-64
2021/03/13 04:29:35;;;;;;;15.18;8.58;;;;;;;2.43;86.57;97496.43;1650151;86;21195;-64
2021/03/13 04:32:04;;;;;;;11.55;6.92;;;;;;;2.48;86.37;97499.51;1644855;86;21687;-64
2021/03/13 04:34:34;;;;;;;14.90;8.55;;;;;;;2.54;85.92;97501.64;1643262;85;21263;-64
2021/03/13 04:37:04;;;;;;;11.55;7.10;;;;;;;2.59;85.50;97507.28;1642997;85;21186;-65
2021/03/13 04:39:32;;;;;;;11.55;6.72;;;;;;;2.62;85.16;97505.78;1624017;86;21620;-64
2021/03/13 04:42:21;;;;;;;14.25;7.00;;;;;;;2.62;84.89;97505.78;1648499;86;21243;-65
2021/03/13 04:44:49;;;;;;;11.70;6.67;;;;;;;2.67;84.52;97515.28;1691869;81;21657;-65
2021/03/13 04:47:17;;;;;;;15.55;9.03;;;;;;;2.67;84.11;97513.99;1685357;81;21612;-64
2021/03/13 04:49:46;;;;;;;12.43;6.85;;;;;;;2.64;84.15;97512.10;1686570;82;21631;-64
2021/03/13 04:52:15;;;;;;;13.08;7.58;;;;;;;2.61;84.32;97512.29;1700780;82;21163;-64
2021/03/13 04:54:43;;;;;;;13.80;8.40;;;;;;;2.60;84.38;97514.52;1691780;81;21714;-64
2021/03/13 04:57:13;;;;;;;14.15;9.33;;;;;;;2.56;85.21;97522.88;1696799;83;21589;-68
2021/03/13 04:59:41;;;;;;;11.30;6.62;;;;;;;2.42;86.82;97511.44;1688924;82;21555;-64
2021/03/13 05:02:09;;;;;;;11.63;7.80;;;;;;;2.37;87.37;97509.18;1693260;82;21242;-64
2021/03/13 05:04:37;;;;;;;11.35;8.05;;;;;;;2.37;87.33;97515.59;1694211;81;21196;-63
2021/03/13 05:07:05;;;;;;;11.85;7.37;;;;;;;2.32;87.64;97521.96;1690967;82;21619;-64
2021/03/13 05:09:34;;;;;;;11.70;7.80;;;;;;;2.35;87.40;97522.57;1698017;82;21136;-64
2021/03/13 05:12:02;;;;;;;17.62;8.90;;;;;;;2.43;86.70;97522.52;1702053;81;21166;-63
2021/03/13 05:14:30;;;;;;;13.18;6.97;;;;;;;2.41;86.71;97523.91;1694773;81;21668;-64
2021/03/13 05:17:00;;;;;;;12.98;7.75;;;;;;;2.41;87.07;97526.48;1689853;82;21557;-64
2021/03/13 05:19:28;;;;;;;12.40;8.20;;;;;;;2.45;87.04;97527.09;1687484;84;21144;-64
2021/03/13 05:21:56;;;;;;;12.90;6.72;;;;;;;2.45;87.06;97524.53;1639145;85;21204;-63
2021/03/13 05:24:25;;;;;;;17.00;8.20;;;;;;;2.52;86.66;97530.87;1630052;85;21235;-65
2021/03/13 05:26:53;;;;;;;14.58;8.70;;;;;;;2.53;86.85;97520.50;1640608;85;21217;-63
2021/03/13 05:29:24;;;;;;;13.22;7.95;;;;;;;2.49;87.08;97522.91;1635257;84;21168;-63
2021/03/13 05:31:52;;;;;;;10.68;6.83;;;;;;;2.48;87.12;97527.70;1700467;82;21188;-64
2021/03/13 05:34:20;;;;;;;8.85;6.20;;;;;;;2.56;86.45;97523.34;1689819;81;21170;-63
2021/03/13 05:36:48;;;;;;;11.68;7.97;;;;;;;2.62;85.80;97528.86;1695275;82;21234;-64
2021/03/13 05:39:17;;;;;;;6.28;4.65;;;;;;;2.61;85.98;97530.23;1693687;82;21187;-64
2021/03/13 05:41:47;;;;;;;10.03;4.92;;;;;;;2.68;85.44;97528.91;1691700;82;21200;-64
2021/03/13 05:44:16;;;;;;;11.22;6.70;;;;;;;2.68;85.43;97524.61;1698437;81;21196;-65
2021/03/13 05:46:46;;;;;;;10.43;5.72;;;;;;;2.77;85.42;97525.70;1702716;82;21256;-64
2021/03/13 05:49:14;;;;;;;10.15;6.42;;;;;;;2.82;85.30;97532.17;1696074;82;21135;-64
2021/03/13 05:51:47;;;;;;;11.83;7.92;;;;;;;2.91;85.10;97535.86;1702044;82;21663;-62
2021/03/13 05:54:17;;;;;;;11.53;7.95;;;;;;;2.96;84.68;97533.77;1691001;82;21137;-63
2021/03/13 05:56:46;;;;;;;13.83;8.85;;;;;;;2.92;85.45;97540.52;1698692;82;21241;-65
2021/03/13 05:59:14;;;;;;;11.45;8.13;;;;;;;2.91;85.30;97539.70;1702488;81;21143;-65
2021/03/13 06:01:44;;;;;;;13.35;8.08;;;;;;;2.96;84.60;97535.54;1696901;81;21608;-64
2021/03/13 06:04:14;;;;;;;11.73;9.00;;;;;;;2.96;84.51;97535.05;1697810;82;21640;-64
2021/03/13 06:06:43;;;;;;;10.23;7.53;;;;;;;3.00;84.38;97547.20;1686622;83;21171;-64
2021/03/13 06:09:12;;;;;;;10.60;8.03;;;;;;;3.11;84.02;97557.56;1633401;85;21199;-64
2021/03/13 06:11:40;;;;;;;13.00;7.45;;;;;;;3.27;83.83;97562.78;1688615;83;21188;-65
2021/03/13 06:14:08;;;;;;;14.35;7.67;;;;;;;3.39;82.62;97562.38;1683475;84;21175;-65
2021/03/13 06:16:37;;;;;;;13.90;7.47;;;;;;;3.49;82.08;97564.67;1674759;84;21182;-65
2021/03/13 06:19:05;;;;;;;17.77;8.18;;;;;;;3.59;81.65;97568.68;1685754;84;21245;-65
2021/03/13 06:21:37;;;;;;;14.93;7.97;;;;;;;3.68;81.23;97576.56;1684457;84;21245;-65
2021/03/13 06:24:32;;;;;;;14.65;9.60;;;;;;;3.80;81.09;97576.97;1685547;84;21266;-65
2021/03/13 06:27:00;;;;;;;15.03;8.38;;;;;;;3.92;80.62;97581.69;1686379;84;21155;-65
2021/03/13 06:29:32;;;;;;;17.30;9.30;;;;;;;4.04;80.51;97585.13;1689076;81;21183;-64
2021/03/13 06:32:15;;;;;;;17.40;10.00;;;;;;;4.11;79.74;97581.99;1695029;82;21716;-63
2021/03/13 06:34:45;;;;;;;20.80;11.25;;;;;;;4.05;78.84;97591.41;1715356;82;21618;-66
2021/03/13 06:37:23;;;;;;;19.40;10.45;;;;;;;3.99;79.68;97593.16;1709082;83;21264;-64
2021/03/13 06:39:52;;;;;;;17.27;10.05;;;;;;;3.96;79.91;97590.81;1688621;82;21677;-65
2021/03/13 06:42:27;;;;;;;16.50;10.38;;;;;;;3.83;80.10;97590.05;1696400;83;21250;-63
2021/03/13 06:45:02;;;;;;;15.15;9.50;;;;;;;3.71;80.50;97596.05;1703433;82;21153;-63
2021/03/13 06:47:54;;;;;;;16.87;9.43;;;;;;;3.78;79.91;97603.67;1687715;84;21171;-66
2021/03/13 06:50:29;;;;;;;16.45;9.08;;;;;;;3.82;79.70;97603.81;1695298;82;21798;-63
2021/03/13 06:53:10;;;;;;;14.53;7.85;;;;;;;4.03;79.58;97615.59;1682458;83;21564;-63
2021/03/13 06:55:38;;;;;;;18.52;9.68;;;;;;;4.19;79.48;97620.80;1704084;82;21162;-64
2021/03/13 06:58:12;;;;;;;16.85;10.30;;;;;;;4.38;78.63;97634.41;1710034;83;21179;-64
2021/03/13 07:00:45;;;;;;;19.07;10.32;;;;;;;4.51;78.15;97631.77;1702552;81;21182;-66
2021/03/13 07:03:15;;;;;;;20.62;10.35;;;;;;;4.36;77.54;97629.83;1672787;84;21193;-65
2021/03/13 07:05:45;;;;;;;19.82;9.80;;;;;;;4.34;78.03;97627.03;1685626;82;21648;-65
2021/03/13 07:08:24;;;;;;;15.95;9.18;;;;;;;4.44;77.44;97626.70;1693428;83;21206;-64
2021/03/13 07:11:16;;;;;;;15.98;9.00;;;;;;;4.49;77.23;97624.61;1693494;83;21211;-65
2021/03/13 07:13:48;;;;;;;17.20;10.48;;;;;;;4.51;77.12;97618.45;1715511;82;21168;-64
2021/03/13 07:16:38;;;;;;;15.55;8.78;;;;;;;4.54;77.24;97624.64;1705359;82;21920;-64
2021/03/13 07:19:11;;;;;;;15.20;8.50;;;;;;;4.72;77.38;97628.41;1733042;81;21176;-64
2021/03/13 07:21:42;;;;;;;16.70;9.18;;;;;;;4.92;77.13;97629.48;1707505;81;21139;-64
2021/03/13 07:24:13;;;;;;;19.23;10.00;;;;;;;5.09;76.72;97630.80;1716554;82;21641;-64
2021/03/13 07:26:44;;;;;;;20.15;9.83;;;;;;;5.04;75.47;97629.03;1723144;81;21564;-64
2021/03/13 07:29:15;;;;;;;18.05;10.43;;;;;;;5.22;75.71;97627.61;1706654;81;21247;-65
2021/03/13 07:32:22;;;;;;;18.95;10.88;;;;;;;5.31;75.43;97634.64;1673483;83;21154;-64
2021/03/13 07:34:55;;;;;;;15.18;9.00;;;;;;;5.37;74.73;97639.80;1664037;84;21258;-64
2021/03/13 07:37:24;;;;;;;21.50;8.60;;;;;;;5.50;74.44;97642.58;1646618;85;21175;-66
2021/03/13 07:39:53;;;;;;;15.43;9.00;;;;;;;5.57;73.97;97646.78;1641404;86;21190;-64
2021/03/13 07:42:23;;;;;;;17.27;8.35;;;;;;;5.35;74.51;97641.66;1640330;85;21194;-65
2021/03/13 07:44:52;;;;;;;14.33;8.60;;;;;;;5.51;74.29;97633.11;1641102;85;21636;-65
2021/03/13 07:47:20;;;;;;;10.38;6.10;;;;;;;5.54;73.85;97628.53;1641681;86;21270;-64
2021/03/13 07:49:49;;;;;;;10.78;6.83;;;;;;;5.66;73.30;97635.30;1636676;86;21265;-64
2021/03/13 07:52:19;;;;;;;14.53;8.95;;;;;;;5.54;73.37;97641.88;1632242;86;21190;-65
2021/03/13 07:54:50;;;;;;;18.60;9.43;;;;;;;5.59;74.00;97645.74;1643533;85;21562;-66
2021/03/13 07:57:21;;;;;;;27.52;8.28;;;;;;;5.64;73.58;97641.53;1617443;86;21644;-65
2021/03/13 07:59:54;;;;;;;16.50;8.28;;;;;;;5.66;73.57;97626.75;1639931;85;21225;-65
2021/03/13 08:02:34;;;;;;;11.57;7.17;;;;;;;5.81;73.53;97622.14;1635204;85;21639;-65
2021/03/13 08:05:10;;;;;;;13.55;7.53;;;;;;;5.94;72.67;97621.56;1610805;86;21215;-65
2021/03/13 08:11:15;;;;;;;18.98;8.58;;;;;;;5.87;73.17;97622.53;1605312;88;21203;-64
2021/03/13 08:13:55;;;;;;;16.30;8.35;;;;;;;5.77;73.88;97613.84;1611218;87;21213;-64
2021/03/13 08:16:35;;;;;;;16.97;8.88;;;;;;;6.10;72.70;97611.67;1600355;88;21281;-64
2021/03/13 08:22:23;;;;;;;17.52;8.45;;;;;;;6.34;71.76;97612.73;1660515;83;21152;-64
2021/03/13 08:24:53;;;;;;;21.05;9.68;;;;;;;6.53;71.34;97618.84;1664418;84;21162;-64
2021/03/13 08:27:46;;;;;;;38.20;19.07;;;;;;;6.71;70.96;97621.66;1665217;84;21207;-65
2021/03/13 08:30:26;;;;;;;17.20;10.90;;;;;;;7.05;70.75;97627.41;1712302;81;21687;-67
2021/03/13 08:33:08;;;;;;;15.65;8.45;;;;;;;7.06;69.33;97629.87;1710355;81;21649;-67
2021/03/13 08:35:43;;;;;;;16.82;8.45;;;;;;;7.23;68.98;97625.05;1696582;82;21225;-66
2021/03/13 08:38:14;;;;;;;19.90;8.43;;;;;;;7.01;70.01;97623.44;1690583;83;21228;-66
2021/03/13 08:40:47;;;;;;;17.32;8.50;;;;;;;7.06;70.38;97622.13;1697551;82;21179;-66
2021/03/13 08:43:36;;;;;;;14.98;8.53;;;;;;;7.05;70.22;97616.61;1699337;82;21242;-61
2021/03/13 08:46:07;;;;;;;16.70;7.65;;;;;;;7.01;70.06;97616.52;1682805;82;21656;-64
2021/03/13 08:48:55;;;;;;;12.47;7.28;;;;;;;7.38;69.75;97619.87;1687301;82;21243;-65
2021/03/13 08:51:25;;;;;;;15.00;8.43;;;;;;;7.56;68.53;97619.58;1696102;82;21174;-65
2021/03/13 08:53:54;;;;;;;12.25;7.33;;;;;;;7.57;68.06;97619.45;1704794;82;21147;-65
2021/03/13 08:56:43;;;;;;;16.70;7.78;;;;;;;7.51;67.66;97616.56;1713444;82;21262;-66
2021/03/13 08:59:19;;;;;;;15.30;6.72;;;;;;;7.53;68.21;97612.91;1698257;83;21712;-65
2021/03/13 09:02:11;;;;;;;13.53;7.17;;;;;;;7.75;67.66;97620.91;1717521;82;21176;-64
2021/03/13 09:04:46;;;;;;;15.20;8.73;;;;;;;7.70;67.40;97617.11;1694809;83;21178;-64
2021/03/13 09:07:16;;;;;;;15.00;6.87;;;;;;;7.57;68.20;97619.45;1690314;84;21168;-67
2021/03/13 09:09:45;;;;;;;13.20;8.00;;;;;;;7.89;67.49;97615.84;1690455;84;21174;-64
2021/03/13 09:12:17;;;;;;;15.68;7.25;;;;;;;8.05;67.21;97615.63;1692352;84;21600;-65
2021/03/13 09:14:52;;;;;;;8.13;5.08;;;;;;;8.34;66.39;97610.50;1690503;84;21231;-64
2021/03/13 09:17:24;;;;;;;13.80;5.50;;;;;;;8.46;66.21;97616.34;1694361;83;21245;-65
2021/03/13 09:20:13;;;;;;;15.65;7.97;;;;;;;8.46;65.80;97621.05;1692711;83;21187;-64
2021/03/13 09:22:44;;;;;;;12.40;6.78;;;;;;;8.37;66.66;97628.80;1664974;84;21699;-65
2021/03/13 09:25:19;;;;;;;15.08;7.50;;;;;;;8.70;65.62;97618.02;1661286;84;21191;-64
2021/03/13 09:27:52;;;;;;;12.65;7.33;;;;;;;8.63;65.92;97614.36;1661198;84;21752;-64
2021/03/13 09:30:24;;;;;;;13.08;7.47;;;;;;;8.79;65.50;97617.20;1688220;83;21179;-65
2021/03/13 09:32:53;;;;;;;12.58;6.78;;;;;;;8.86;64.99;97623.45;1673407;83;21241;-64
2021/03/13 09:35:25;;;;;;;19.67;6.85;;;;;;;8.94;64.59;97622.27;1665064;84;21184;-64
2021/03/13 09:37:53;;;;;;;13.25;6.70;;;;;;;9.13;63.97;97618.80;1708440;82;21183;-64
2021/03/13 09:40:26;;;;;;;10.78;6.25;;;;;;;9.05;63.24;97620.80;1694379;81;21193;-65
2021/03/13 09:42:55;;;;;;;11.60;6.47;;;;;;;9.18;62.74;97619.67;1690316;81;21192;-64
2021/03/13 09:45:25;;;;;;;11.08;5.85;;;;;;;9.49;62.00;97612.75;1650645;84;22399;-65
2021/03/13 09:47:59;;;;;;;13.28;6.75;;;;;;;10.08;60.77;97604.16;1676193;84;21163;-65
2021/03/13 09:50:34;;;;;;;14.78;7.50;;;;;;;10.24;59.23;97588.26;1667106;84;21196;-67
2021/03/13 09:53:06;;;;;;;8.43;5.25;;;;;;;10.49;57.93;97577.59;1662213;84;21197;-65
2021/03/13 09:55:38;;;;;;;11.83;6.20;;;;;;;10.99;57.50;97569.13;1665144;84;21210;-63
2021/03/13 09:58:06;;;;;;;13.03;7.22;;;;;;;11.51;56.25;97570.66;1639727;85;21199;-64
2021/03/13 10:01:01;;;;;;;12.82;6.83;;;;;;;11.78;54.75;97572.23;1698610;82;21606;-62
2021/03/13 10:03:30;;;;;;;12.15;6.33;;;;;;;12.00;53.64;97573.39;1665918;84;21172;-65
2021/03/13 10:05:58;;;;;;;10.30;6.53;;;;;;;12.42;53.57;97564.13;1660241;85;21152;-62
2021/03/13 10:08:38;;;;;;;10.48;6.55;;;;;;;12.39;52.40;97550.95;1670955;84;21706;-66
2021/03/13 10:11:06;;;;;;;10.70;6.45;;;;;;;12.73;50.87;97542.92;1661605;85;21191;-64
2021/03/13 10:13:33;;;;;;;11.45;6.83;;;;;;;12.93;49.39;97542.06;1663975;85;21188;-61
2021/03/13 10:16:03;;;;;;;13.30;6.92;;;;;;;12.99;51.21;97530.50;1664632;85;21727;-64
2021/03/13 10:18:38;;;;;;;13.75;6.05;;;;;;;13.61;50.29;97532.69;1633465;86;21145;-65
2021/03/13 10:21:07;;;;;;;9.20;5.10;;;;;;;13.56;47.55;97545.42;1626444;87;21216;-65
2021/03/13 10:23:38;;;;;;;10.23;5.10;;;;;;;13.72;47.76;97544.03;1618688;86;21272;-63
2021/03/13 10:26:15;;;;;;;7.75;4.45;;;;;;;13.69;46.56;97544.38;1626778;86;21249;-63
2021/03/13 10:28:52;;;;;;;6.50;4.05;;;;;;;14.35;46.24;97539.05;1662898;84;21235;-65
2021/03/13 10:31:28;;;;;;;9.35;4.47;;;;;;;14.43;44.74;97544.20;1667231;85;21191;-62
2021/03/13 10:34:03;;;;;;;7.53;4.75;;;;;;;15.28;44.40;97545.91;1666164;83;21168;-71
2021/03/13 10:36:46;;;;;;;10.60;5.22;;;;;;;15.38;41.17;97548.23;1633143;84;21204;-64
2021/03/13 10:39:18;;;;;;;5.87;3.83;;;;;;;15.24;41.57;97549.88;1647164;84;21224;-62
2021/03/13 10:41:56;;;;;;;7.55;3.72;;;;;;;15.37;39.38;97547.42;1648622;84;21167;-64
2021/03/13 10:44:26;;;;;;;7.22;4.78;;;;;;;15.55;38.54;97545.77;1660392;84;21571;-64
2021/03/13 10:46:57;;;;;;;8.15;3.35;;;;;;;15.63;39.52;97543.04;1623794;86;21204;-66
2021/03/13 10:49:41;;;;;;;4.35;2.70;;;;;;;15.72;39.20;97546.36;1728298;80;21227;-64
2021/03/13 10:52:15;;;;;;;4.05;2.02;;;;;;;16.60;37.47;97548.92;1728276;80;21234;-63
2021/03/13 10:54:46;;;;;;;3.80;2.58;;;;;;;16.92;34.62;97550.16;1728878;81;21163;-64
2021/03/13 10:57:19;;;;;;;6.22;2.72;;;;;;;16.77;34.62;97552.58;1705936;82;21162;-64
2021/03/13 10:59:47;;;;;;;7.50;3.20;;;;;;;15.90;36.78;97548.88;1708855;80;21587;-64
2021/03/13 11:02:15;;;;;;;5.92;3.90;;;;;;;15.55;38.60;97540.03;1729049;81;21241;-64
2021/03/13 11:04:43;;;;;;;6.70;4.35;;;;;;;15.47;39.10;97542.73;1729038;80;21167;-64
2021/03/13 11:07:15;;;;;;;7.78;3.30;;;;;;;15.11;39.44;97542.67;1728593;80;21561;-64
2021/03/13 11:09:47;;;;;;;11.68;4.17;;;;;;;15.03;39.38;97534.10;1732610;81;21636;-64
2021/03/13 11:12:15;;;;;;;4.80;3.02;;;;;;;14.61;40.28;97534.22;1722783;80;21178;-63
2021/03/13 11:14:43;;;;;;;5.80;2.75;;;;;;;15.30;38.70;97520.37;1726909;80;21646;-64
2021/03/13 11:17:11;;;;;;;4.45;2.50;;;;;;;15.92;37.70;97517.24;1733163;81;21155;-64
2021/03/13 11:19:39;;;;;;;5.05;2.95;;;;;;;16.85;35.52;97511.75;1729859;80;21107;-64
2021/03/13 11:22:10;;;;;;;4.83;2.72;;;;;;;16.69;36.45;97504.22;1736498;81;21683;-64
2021/03/13 11:24:38;;;;;;;6.78;3.20;;;;;;;16.61;35.82;97503.34;1734701;81;21171;-64
2021/03/13 11:27:07;;;;;;;5.62;2.72;;;;;;;16.48;35.56;97503.73;1721712;81;21182;-64
2021/03/13 11:29:35;;;;;;;3.60;2.10;;;;;;;16.99;36.09;97493.30;1701979;82;21223;-64
2021/03/13 11:32:05;;;;;;;2.92;2.08;;;;;;;16.86;34.87;97484.03;1712258;82;21159;-64
2021/03/13 11:34:33;;;;;;;3.22;2.08;;;;;;;17.12;33.71;97492.53;1726830;79;21125;-64
2021/03/13 11:37:01;;;;;;;3.08;2.15;;;;;;;17.45;32.93;97490.05;1731451;80;21238;-64
2021/03/13 11:39:29;;;;;;;4.55;2.47;;;;;;;18.06;32.41;97488.67;1715350;81;21231;-65
2021/03/13 11:41:59;;;;;;;3.75;2.10;;;;;;;18.47;32.75;97486.16;1703999;82;21152;-63
2021/03/13 11:44:27;;;;;;;4.85;2.65;;;;;;;18.56;30.70;97476.78;1709768;82;21255;-65
2021/03/13 11:46:55;;;;;;;2.60;2.00;;;;;;;19.73;29.88;97476.85;1720927;81;21182;-64
2021/03/13 11:49:23;;;;;;;3.37;2.30;;;;;;;20.67;28.42;97476.74;1711684;81;21161;-64
2021/03/13 11:51:51;;;;;;;2.95;2.17;;;;;;;20.94;26.33;97475.14;1726882;81;21588;-64
2021/03/13 11:54:19;;;;;;;4.00;2.25;;;;;;;20.67;26.59;97471.97;1725627;81;21170;-64
2021/03/13 11:56:47;;;;;;;2.62;1.90;;;;;;;20.67;26.54;97475.93;1726825;81;21198;-65
2021/03/13 11:59:15;;;;;;;3.52;2.55;;;;;;;21.29;27.38;97473.03;1714528;80;21161;-64
2021/03/13 12:01:43;;;;;;;3.55;2.10;;;;;;;20.65;26.44;97466.94;1735244;80;21170;-64
2021/03/13 12:04:11;;;;;;;4.83;2.40;;;;;;;20.90;26.79;97466.86;1722340;82;21594;-64
2021/03/13 12:06:40;;;;;;;4.35;2.08;;;;;;;20.32;27.16;97463.78;1716786;81;21597;-65